createdAt,value
2023-04-22T00:03:10.297Z,8.10
2023-04-22T00:06:52.267Z,8.10
2023-04-22T00:10:34.310Z,8.10
2023-04-22T00:14:16.093Z,8.00
2023-04-22T00:17:58.875Z,8.00
2023-04-22T00:21:40.818Z,7.90
2023-04-22T00:25:22.543Z,7.90
2023-04-22T00:29:04.317Z,7.90
2023-04-22T00:32:46.149Z,7.90
2023-04-22T00:36:28.015Z,7.80
2023-04-22T00:40:10.346Z,7.80
2023-04-22T00:43:53.523Z,7.50
2023-04-22T00:47:35.849Z,7.30
2023-04-22T00:51:17.621Z,7.20
2023-04-22T00:54:59.873Z,7.20
2023-04-22T00:58:42.126Z,7.30
2023-04-22T01:02:25.347Z,7.30
2023-04-22T01:06:07.689Z,7.30
2023-04-22T01:09:50.215Z,7.30
2023-04-22T01:13:32.698Z,7.30
2023-04-22T01:17:16.501Z,7.30
2023-04-22T01:20:58.339Z,7.30
2023-04-22T01:24:40.403Z,7.10
2023-04-22T01:28:23.599Z,7.10
2023-04-22T01:32:05.977Z,7.20
2023-04-22T01:35:48.006Z,7.10
2023-04-22T01:39:30.227Z,7.00
2023-04-22T01:43:12.277Z,7.00
2023-04-22T01:46:54.394Z,6.90
2023-04-22T01:50:36.189Z,6.90
2023-04-22T01:54:18.093Z,6.90
2023-04-22T01:58:00.207Z,6.90
2023-04-22T02:01:42.038Z,6.90
2023-04-22T02:05:24.082Z,6.90
2023-04-22T02:09:06.195Z,6.80
2023-04-22T02:12:48.014Z,6.90
2023-04-22T02:16:30.074Z,6.80
2023-04-22T02:20:13.073Z,6.80
2023-04-22T02:23:54.833Z,6.70
2023-04-22T02:27:37.238Z,6.40
2023-04-22T02:31:19.187Z,6.30
2023-04-22T02:35:02.014Z,6.30
2023-04-22T02:38:43.905Z,6.30
2023-04-22T02:42:25.909Z,6.30
2023-04-22T02:46:07.820Z,6.30
2023-04-22T02:49:49.566Z,6.40
2023-04-22T02:53:31.301Z,6.40
2023-04-22T02:57:18.945Z,6.50
2023-04-22T03:01:06.562Z,6.50
2023-04-22T03:04:48.646Z,6.60
2023-04-22T03:08:30.403Z,6.60
2023-04-22T03:12:12.467Z,6.50
2023-04-22T03:15:54.150Z,6.40
2023-04-22T03:19:36.350Z,6.30
2023-04-22T03:23:18.383Z,6.40
2023-04-22T03:27:00.445Z,6.50
2023-04-22T03:30:42.190Z,6.40
2023-04-22T03:34:23.895Z,6.40
2023-04-22T03:38:05.651Z,6.40
2023-04-22T03:41:47.544Z,6.50
2023-04-22T03:45:29.599Z,6.60
2023-04-22T03:49:12.158Z,6.60
2023-04-22T03:52:54.142Z,6.60
2023-04-22T03:56:36.872Z,6.60
2023-04-22T04:00:18.628Z,6.50
2023-04-22T04:04:00.700Z,6.40
2023-04-22T04:07:42.652Z,6.50
2023-04-22T04:11:24.779Z,6.50
2023-04-22T04:15:07.675Z,6.50
2023-04-22T04:18:52.353Z,6.40
2023-04-22T04:22:35.273Z,6.40
2023-04-22T04:26:18.089Z,6.40
2023-04-22T04:29:59.843Z,6.40
2023-04-22T04:33:41.646Z,6.40
2023-04-22T04:37:23.468Z,6.40
2023-04-22T04:41:05.356Z,6.40
2023-04-22T04:44:51.053Z,6.30
2023-04-22T04:48:36.026Z,6.20
2023-04-22T04:52:17.980Z,6.10
2023-04-22T04:55:59.860Z,6.20
2023-04-22T04:59:41.761Z,6.20
2023-04-22T05:03:24.061Z,6.20
2023-04-22T05:07:06.076Z,6.20
2023-04-22T05:10:47.824Z,6.20
2023-04-22T05:14:30.886Z,6.20
2023-04-22T05:18:12.596Z,6.10
2023-04-22T05:21:54.325Z,6.10
2023-04-22T05:25:36.184Z,6.10
2023-04-22T05:29:18.265Z,6.10
2023-04-22T05:33:00.198Z,6.00
2023-04-22T05:36:42.256Z,5.90
2023-04-22T05:40:24.001Z,5.90
2023-04-22T05:44:05.697Z,6.10
2023-04-22T05:47:47.525Z,6.20
2023-04-22T05:51:29.310Z,6.20
2023-04-22T05:55:11.096Z,6.20
2023-04-22T05:58:52.845Z,6.30
2023-04-22T06:02:34.780Z,6.20
2023-04-22T06:06:16.954Z,6.30
2023-04-22T06:10:04.531Z,6.30
2023-04-22T06:13:47.006Z,6.20
2023-04-22T06:17:28.918Z,6.10
2023-04-22T06:21:10.969Z,6.10
2023-04-22T06:24:52.731Z,6.20
2023-04-22T06:28:34.472Z,6.30
2023-04-22T06:32:16.364Z,6.30
2023-04-22T06:35:58.170Z,6.20
2023-04-22T06:39:40.274Z,6.10
2023-04-22T06:43:22.169Z,6.00
2023-04-22T06:47:04.186Z,6.00
2023-04-22T06:50:46.009Z,6.20
2023-04-22T06:54:27.811Z,6.30
2023-04-22T06:58:09.539Z,6.30
2023-04-22T07:01:51.280Z,6.40
2023-04-22T07:05:33.156Z,6.50
2023-04-22T07:09:14.965Z,6.70
2023-04-22T07:12:56.689Z,6.80
2023-04-22T07:16:39.239Z,6.70
2023-04-22T07:20:21.093Z,6.80
2023-04-22T07:24:02.842Z,6.80
2023-04-22T07:27:44.567Z,6.80
2023-04-22T07:31:26.328Z,6.80
2023-04-22T07:35:08.491Z,6.80
2023-04-22T07:38:50.525Z,6.80
2023-04-22T07:42:32.263Z,6.90
2023-04-22T07:46:14.020Z,7.00
2023-04-22T07:49:55.781Z,7.10
2023-04-22T07:53:37.534Z,7.30
2023-04-22T07:57:22.440Z,7.40
2023-04-22T08:01:04.535Z,7.60
2023-04-22T08:04:46.479Z,7.60
2023-04-22T08:08:28.312Z,7.70
2023-04-22T08:12:10.161Z,7.80
2023-04-22T08:15:51.987Z,7.90
2023-04-22T08:19:33.787Z,8.10
2023-04-22T08:23:15.612Z,8.10
2023-04-22T08:26:57.698Z,8.20
2023-04-22T08:30:39.600Z,8.30
2023-04-22T08:34:21.616Z,8.30
2023-04-22T08:38:03.374Z,8.40
2023-04-22T08:41:46.819Z,8.60
2023-04-22T08:45:29.211Z,8.80
2023-04-22T08:49:11.667Z,8.90
2023-04-22T08:52:53.397Z,9.10
2023-04-22T08:56:36.946Z,9.20
2023-04-22T09:00:19.307Z,9.40
2023-04-22T09:04:01.834Z,9.60
2023-04-22T09:07:44.867Z,9.80
2023-04-22T09:11:28.037Z,9.90
2023-04-22T09:15:10.606Z,10.10
2023-04-22T09:18:52.367Z,10.30
2023-04-22T09:22:43.468Z,10.40
2023-04-22T09:26:26.451Z,10.50
2023-04-22T09:30:09.905Z,10.70
2023-04-22T09:33:54.712Z,10.80
2023-04-22T09:37:48.487Z,11.00
2023-04-22T09:41:39.174Z,11.10
2023-04-22T09:45:41.914Z,11.30
2023-04-22T09:49:23.748Z,11.40
2023-04-22T09:53:10.824Z,11.50
2023-04-22T09:56:53.871Z,11.60
2023-04-22T10:00:40.173Z,11.70
2023-04-22T10:04:23.347Z,11.80
2023-04-22T10:08:06.562Z,11.90
2023-04-22T10:11:50.643Z,11.90
2023-04-22T10:15:35.558Z,11.90
2023-04-22T10:19:23.761Z,12.10
2023-04-22T10:23:06.607Z,12.20
2023-04-22T10:26:57.834Z,12.20
2023-04-22T10:30:40.152Z,12.20
2023-04-22T10:34:21.929Z,12.20
2023-04-22T10:38:08.343Z,12.30
2023-04-22T10:42:10.061Z,12.40
2023-04-22T10:45:51.919Z,12.50
2023-04-22T10:49:35.048Z,12.50
2023-04-22T10:53:36.380Z,12.50
2023-04-22T10:57:24.972Z,12.60
2023-04-22T11:01:15.191Z,12.60
2023-04-22T11:05:25.360Z,12.70
2023-04-22T11:09:10.199Z,12.80
2023-04-22T11:12:52.316Z,12.90
2023-04-22T11:16:35.360Z,13.00
2023-04-22T11:20:17.594Z,13.10
2023-04-22T11:24:02.974Z,13.30
2023-04-22T11:27:45.589Z,13.40
2023-04-22T11:31:27.600Z,13.50
2023-04-22T11:35:12.295Z,13.60
2023-04-22T11:38:57.438Z,13.70
2023-04-22T11:42:39.754Z,13.80
2023-04-22T11:46:31.836Z,13.90
2023-04-22T11:50:14.502Z,14.10
2023-04-22T11:53:58.436Z,14.10
2023-04-22T11:57:41.003Z,14.20
2023-04-22T12:01:23.572Z,14.30
2023-04-22T12:05:08.996Z,14.40
2023-04-22T12:08:51.310Z,14.40
2023-04-22T12:12:35.615Z,14.60
2023-04-22T12:16:20.468Z,14.80
2023-04-22T12:20:02.831Z,14.90
2023-04-22T12:23:49.643Z,15.00
2023-04-22T12:27:31.978Z,15.10
2023-04-22T12:31:15.025Z,15.10
2023-04-22T12:34:56.795Z,15.10
2023-04-22T12:38:38.723Z,14.90
2023-04-22T12:42:20.635Z,14.70
2023-04-22T12:46:07.554Z,14.50
2023-04-22T12:49:49.626Z,14.50
2023-04-22T12:53:31.490Z,14.50
2023-04-22T12:57:13.340Z,14.40
2023-04-22T13:00:55.258Z,14.40
2023-04-22T13:04:37.086Z,14.40
2023-04-22T13:08:19.134Z,14.60
2023-04-22T13:12:00.990Z,14.70
2023-04-22T13:15:42.761Z,14.90
2023-04-22T13:19:25.873Z,15.10
2023-04-22T13:23:08.130Z,15.50
2023-04-22T13:26:52.585Z,16.20
2023-04-22T13:30:36.445Z,16.10
2023-04-22T13:34:18.286Z,15.80
2023-04-22T13:38:00.008Z,15.50
2023-04-22T13:41:42.213Z,15.80
2023-04-22T13:45:24.780Z,15.90
2023-04-22T13:49:06.592Z,15.70
2023-04-22T13:52:48.340Z,15.50
2023-04-22T13:56:30.342Z,15.40
2023-04-22T14:00:12.461Z,15.10
2023-04-22T14:03:54.829Z,14.90
2023-04-22T14:07:36.938Z,14.60
2023-04-22T14:11:19.206Z,14.50
2023-04-22T14:15:01.340Z,14.40
2023-04-22T14:18:45.871Z,14.50
2023-04-22T14:22:28.808Z,14.50
2023-04-22T14:26:12.579Z,14.40
2023-04-22T14:29:54.521Z,14.30
2023-04-22T14:33:36.506Z,14.10
2023-04-22T14:37:18.314Z,14.00
2023-04-22T14:41:00.144Z,13.90
2023-04-22T14:44:42.656Z,13.90
2023-04-22T14:48:25.428Z,14.00
2023-04-22T14:52:07.694Z,14.20
2023-04-22T14:55:49.404Z,14.40
2023-04-22T14:59:31.124Z,14.60
2023-04-22T15:03:13.011Z,14.80
2023-04-22T15:06:57.529Z,15.00
2023-04-22T15:10:39.344Z,15.40
2023-04-22T15:14:21.072Z,15.60
2023-04-22T15:18:02.999Z,15.60
2023-04-22T15:21:44.813Z,15.60
2023-04-22T15:25:27.379Z,15.50
2023-04-22T15:29:09.305Z,15.40
2023-04-22T15:32:51.140Z,15.40
2023-04-22T15:36:33.225Z,15.30
2023-04-22T15:40:15.138Z,15.30
2023-04-22T15:43:56.870Z,15.20
2023-04-22T15:47:40.231Z,15.20
2023-04-22T15:51:22.792Z,15.10
2023-04-22T15:55:05.874Z,15.00
2023-04-22T15:58:47.623Z,15.00
2023-04-22T16:02:29.508Z,14.80
2023-04-22T16:06:11.346Z,14.60
2023-04-22T16:09:53.217Z,14.40
2023-04-22T16:13:35.012Z,14.30
2023-04-22T16:17:16.992Z,14.10
2023-04-22T16:21:00.346Z,14.00
2023-04-22T16:24:44.242Z,13.90
2023-04-22T16:28:26.326Z,13.80
2023-04-22T16:32:08.091Z,13.70
2023-04-22T16:35:49.805Z,13.60
2023-04-22T16:39:31.619Z,13.50
2023-04-22T16:43:13.457Z,13.40
2023-04-22T16:46:55.165Z,13.30
2023-04-22T16:50:38.674Z,13.10
2023-04-22T16:54:20.497Z,13.00
2023-04-22T16:58:03.801Z,12.90
2023-04-22T17:01:45.630Z,12.90
2023-04-22T17:05:27.439Z,12.80
2023-04-22T17:09:09.865Z,12.70
2023-04-22T17:12:53.240Z,12.70
2023-04-22T17:16:35.264Z,12.70
2023-04-22T17:20:17.220Z,12.70
2023-04-22T17:23:59.333Z,12.60
2023-04-22T17:27:41.044Z,12.60
2023-04-22T17:31:23.577Z,12.50
2023-04-22T17:35:05.900Z,12.40
2023-04-22T17:38:47.632Z,12.40
2023-04-22T17:42:38.756Z,12.30
2023-04-22T17:46:24.550Z,12.20
2023-04-22T17:50:07.071Z,12.10
2023-04-22T17:53:48.866Z,12.00
2023-04-22T17:57:31.222Z,12.00
2023-04-22T18:01:13.397Z,12.00
2023-04-22T18:04:55.232Z,11.90
2023-04-22T18:08:37.819Z,11.90
2023-04-22T18:12:20.913Z,11.90
2023-04-22T18:16:02.642Z,11.90
2023-04-22T18:19:44.600Z,11.90
2023-04-22T18:23:26.483Z,11.80
2023-04-22T18:27:08.200Z,11.80
2023-04-22T18:30:49.965Z,11.80
2023-04-22T18:34:31.806Z,11.70
2023-04-22T18:38:13.605Z,11.60
2023-04-22T18:41:55.409Z,11.60
2023-04-22T18:45:37.185Z,11.60
2023-04-22T18:49:18.944Z,11.50
2023-04-22T18:53:00.641Z,11.50
2023-04-22T18:56:42.347Z,11.40
2023-04-22T19:00:24.510Z,11.40
2023-04-22T19:04:07.879Z,11.40
2023-04-22T19:07:49.781Z,11.30
2023-04-22T19:11:31.652Z,11.30
2023-04-22T19:15:14.166Z,11.30
2023-04-22T19:18:56.086Z,11.30
2023-04-22T19:22:37.898Z,11.30
2023-04-22T19:26:19.907Z,11.30
2023-04-22T19:30:02.028Z,11.30
2023-04-22T19:33:44.593Z,11.20
2023-04-22T19:37:27.082Z,11.20
2023-04-22T19:41:09.313Z,11.20
2023-04-22T19:44:51.306Z,11.10
2023-04-22T19:48:33.628Z,11.10
2023-04-22T19:52:15.937Z,11.10
2023-04-22T19:55:58.047Z,11.10
2023-04-22T19:59:40.923Z,11.10
2023-04-22T20:03:23.453Z,11.10
2023-04-22T20:07:06.808Z,11.10
2023-04-22T20:10:49.488Z,11.10
2023-04-22T20:14:32.851Z,11.10
2023-04-22T20:18:14.729Z,11.10
2023-04-22T20:21:58.724Z,11.10
2023-04-22T20:25:44.152Z,11.10
2023-04-22T20:29:26.335Z,11.30
2023-04-22T20:33:10.707Z,11.20
2023-04-22T20:36:54.745Z,11.30
2023-04-22T20:40:36.795Z,11.30
2023-04-22T20:44:18.881Z,11.30
2023-04-22T20:48:01.006Z,11.30
2023-04-22T20:51:43.129Z,11.40
2023-04-22T20:55:24.823Z,11.40
2023-04-22T20:59:06.555Z,11.40
2023-04-22T21:02:49.533Z,11.40
2023-04-22T21:06:34.457Z,11.40
2023-04-22T21:10:16.617Z,11.40
2023-04-22T21:13:59.077Z,11.40
2023-04-22T21:17:46.166Z,11.50
2023-04-22T21:21:34.525Z,11.50
2023-04-22T21:25:21.974Z,11.50
2023-04-22T21:29:03.914Z,11.50
2023-04-22T21:32:45.745Z,11.50
2023-04-22T21:36:28.194Z,11.50
2023-04-22T21:40:13.065Z,11.60
2023-04-22T21:43:54.974Z,11.60
2023-04-22T21:47:36.823Z,11.60
2023-04-22T21:51:19.275Z,11.60
2023-04-22T21:55:01.117Z,11.50
2023-04-22T21:58:42.849Z,11.50
2023-04-22T22:02:26.564Z,11.60
2023-04-22T22:06:08.738Z,11.60
2023-04-22T22:09:50.734Z,11.50
2023-04-22T22:13:34.067Z,11.60
2023-04-22T22:17:17.425Z,11.60
2023-04-22T22:20:59.733Z,11.60
2023-04-22T22:24:41.710Z,11.50
2023-04-22T22:28:23.892Z,11.60
2023-04-22T22:32:06.361Z,11.50
2023-04-22T22:35:48.159Z,11.60
2023-04-22T22:39:30.007Z,11.60
2023-04-22T22:43:13.423Z,11.50
2023-04-22T22:46:55.445Z,11.60
2023-04-22T22:50:37.353Z,11.60
2023-04-22T22:54:19.164Z,11.60
2023-04-22T22:58:01.062Z,11.60
2023-04-22T23:01:43.088Z,11.50
2023-04-22T23:05:24.966Z,11.50
2023-04-22T23:09:07.560Z,11.50
2023-04-22T23:12:49.354Z,11.40
2023-04-22T23:16:31.563Z,11.40
2023-04-22T23:20:14.073Z,11.50
2023-04-22T23:23:57.170Z,11.50
2023-04-22T23:27:39.183Z,11.40
2023-04-22T23:31:23.986Z,11.50
2023-04-22T23:35:07.804Z,11.50
2023-04-22T23:38:49.570Z,11.50
2023-04-22T23:42:31.354Z,11.40
2023-04-22T23:46:13.228Z,11.40
2023-04-22T23:49:55.782Z,11.40
2023-04-22T23:53:37.484Z,11.40
2023-04-22T23:57:19.519Z,11.40
